sensor_id;sensor_type;location;lat;lon;timestamp;temperature;humidity
32640;DHT22;19049;52.524;11.468;2022-12-19T00:00:24;-0.50;96.20
32640;DHT22;19049;52.524;11.468;2022-12-19T00:02:53;-0.50;96.30
32640;DHT22;19049;52.524;11.468;2022-12-19T00:05:25;-0.50;96.10
32640;DHT22;19049;52.524;11.468;2022-12-19T00:07:51;-0.50;96.20
32640;DHT22;19049;52.524;11.468;2022-12-19T00:10:23;-0.50;96.10
32640;DHT22;19049;52.524;11.468;2022-12-19T00:13:18;-0.40;95.90
32640;DHT22;19049;52.524;11.468;2022-12-19T00:15:44;-0.40;95.90
32640;DHT22;19049;52.524;11.468;2022-12-19T00:18:09;-0.40;95.90
32640;DHT22;19049;52.524;11.468;2022-12-19T00:20:56;-0.40;95.70
32640;DHT22;19049;52.524;11.468;2022-12-19T00:23:30;-0.30;96.00
32640;DHT22;19049;52.524;11.468;2022-12-19T00:26:24;-0.30;95.30
32640;DHT22;19049;52.524;11.468;2022-12-19T00:29:36;-0.30;95.50
32640;DHT22;19049;52.524;11.468;2022-12-19T00:32:09;-0.20;96.10
32640;DHT22;19049;52.524;11.468;2022-12-19T00:34:35;-0.20;95.20
32640;DHT22;19049;52.524;11.468;2022-12-19T00:37:04;-0.10;95.20
32640;DHT22;19049;52.524;11.468;2022-12-19T00:42:18;-0.10;95.70
32640;DHT22;19049;52.524;11.468;2022-12-19T00:44:50;-0.10;95.50
32640;DHT22;19049;52.524;11.468;2022-12-19T00:47:21;0.00;95.70
32640;DHT22;19049;52.524;11.468;2022-12-19T00:49:56;0.00;95.40
32640;DHT22;19049;52.524;11.468;2022-12-19T00:52:30;0.00;95.70
32640;DHT22;19049;52.524;11.468;2022-12-19T00:54:56;0.00;95.20
32640;DHT22;19049;52.524;11.468;2022-12-19T00:57:22;0.10;95.40
32640;DHT22;19049;52.524;11.468;2022-12-19T00:59:47;0.10;95.30
32640;DHT22;19049;52.524;11.468;2022-12-19T01:02:19;0.10;95.70
32640;DHT22;19049;52.524;11.468;2022-12-19T01:04:48;0.10;95.30
32640;DHT22;19049;52.524;11.468;2022-12-19T01:07:14;0.10;95.60
32640;DHT22;19049;52.524;11.468;2022-12-19T01:09:42;0.20;95.40
32640;DHT22;19049;52.524;11.468;2022-12-19T01:12:17;0.20;95.30
32640;DHT22;19049;52.524;11.468;2022-12-19T01:15:07;0.20;95.20
32640;DHT22;19049;52.524;11.468;2022-12-19T01:17:41;0.20;95.40
32640;DHT22;19049;52.524;11.468;2022-12-19T01:20:19;0.20;94.90
32640;DHT22;19049;52.524;11.468;2022-12-19T01:22:51;0.20;94.90
32640;DHT22;19049;52.524;11.468;2022-12-19T01:25:25;0.20;95.20
32640;DHT22;19049;52.524;11.468;2022-12-19T01:28:01;0.30;95.50
32640;DHT22;19049;52.524;11.468;2022-12-19T01:30:30;0.30;95.50
32640;DHT22;19049;52.524;11.468;2022-12-19T01:32:57;0.30;95.30
32640;DHT22;19049;52.524;11.468;2022-12-19T01:35:23;0.30;94.80
32640;DHT22;19049;52.524;11.468;2022-12-19T01:37:54;0.40;94.70
32640;DHT22;19049;52.524;11.468;2022-12-19T01:40:27;0.30;94.60
32640;DHT22;19049;52.524;11.468;2022-12-19T01:42:53;0.40;94.80
32640;DHT22;19049;52.524;11.468;2022-12-19T01:45:24;0.40;94.30
32640;DHT22;19049;52.524;11.468;2022-12-19T01:47:59;0.30;95.00
32640;DHT22;19049;52.524;11.468;2022-12-19T01:50:36;0.40;95.00
32640;DHT22;19049;52.524;11.468;2022-12-19T01:53:08;0.40;95.20
32640;DHT22;19049;52.524;11.468;2022-12-19T01:55:44;0.40;95.40
32640;DHT22;19049;52.524;11.468;2022-12-19T01:58:10;0.50;94.80
32640;DHT22;19049;52.524;11.468;2022-12-19T02:00:37;0.50;95.10
32640;DHT22;19049;52.524;11.468;2022-12-19T02:03:25;0.50;94.70
32640;DHT22;19049;52.524;11.468;2022-12-19T02:06:01;0.50;95.00
32640;DHT22;19049;52.524;11.468;2022-12-19T02:08:46;0.50;94.70
32640;DHT22;19049;52.524;11.468;2022-12-19T02:11:18;0.50;95.80
32640;DHT22;19049;52.524;11.468;2022-12-19T02:13:51;0.50;95.50
32640;DHT22;19049;52.524;11.468;2022-12-19T02:28:02;0.60;95.30
32640;DHT22;19049;52.524;11.468;2022-12-19T02:30:49;0.60;95.20
32640;DHT22;19049;52.524;11.468;2022-12-19T02:33:44;0.60;95.00
32640;DHT22;19049;52.524;11.468;2022-12-19T02:36:25;0.70;95.10
32640;DHT22;19049;52.524;11.468;2022-12-19T02:39:10;0.60;95.20
32640;DHT22;19049;52.524;11.468;2022-12-19T02:41:55;0.60;95.60
32640;DHT22;19049;52.524;11.468;2022-12-19T02:46:52;0.70;95.40
32640;DHT22;19049;52.524;11.468;2022-12-19T02:49:28;0.70;95.80
32640;DHT22;19049;52.524;11.468;2022-12-19T02:51:53;0.70;95.60
32640;DHT22;19049;52.524;11.468;2022-12-19T02:54:19;0.70;95.70
32640;DHT22;19049;52.524;11.468;2022-12-19T02:56:59;0.80;95.40
32640;DHT22;19049;52.524;11.468;2022-12-19T03:08:47;0.80;95.10
32640;DHT22;19049;52.524;11.468;2022-12-19T03:11:34;0.80;95.40
32640;DHT22;19049;52.524;11.468;2022-12-19T03:14:11;0.90;95.60
32640;DHT22;19049;52.524;11.468;2022-12-19T03:16:41;0.90;95.40
32640;DHT22;19049;52.524;11.468;2022-12-19T03:19:15;0.90;95.50
32640;DHT22;19049;52.524;11.468;2022-12-19T03:21:46;0.90;95.20
32640;DHT22;19049;52.524;11.468;2022-12-19T03:24:24;0.90;95.70
32640;DHT22;19049;52.524;11.468;2022-12-19T03:26:56;0.90;95.60
32640;DHT22;19049;52.524;11.468;2022-12-19T03:30:04;1.00;95.50
32640;DHT22;19049;52.524;11.468;2022-12-19T03:32:38;1.00;95.80
32640;DHT22;19049;52.524;11.468;2022-12-19T03:35:40;1.00;96.10
32640;DHT22;19049;52.524;11.468;2022-12-19T03:38:17;1.00;95.90
32640;DHT22;19049;52.524;11.468;2022-12-19T03:44:13;1.00;95.90
32640;DHT22;19049;52.524;11.468;2022-12-19T03:46:43;1.00;95.40
32640;DHT22;19049;52.524;11.468;2022-12-19T03:49:16;1.00;95.40
32640;DHT22;19049;52.524;11.468;2022-12-19T03:51:51;1.00;95.50
32640;DHT22;19049;52.524;11.468;2022-12-19T03:54:34;1.00;95.70
32640;DHT22;19049;52.524;11.468;2022-12-19T04:00:22;1.10;95.70
32640;DHT22;19049;52.524;11.468;2022-12-19T04:02:53;1.00;95.40
32640;DHT22;19049;52.524;11.468;2022-12-19T04:05:29;1.10;95.80
32640;DHT22;19049;52.524;11.468;2022-12-19T04:08:02;1.10;96.00
32640;DHT22;19049;52.524;11.468;2022-12-19T04:10:54;1.10;95.90
32640;DHT22;19049;52.524;11.468;2022-12-19T04:13:40;1.10;96.00
32640;DHT22;19049;52.524;11.468;2022-12-19T04:16:23;1.10;96.00
32640;DHT22;19049;52.524;11.468;2022-12-19T04:19:10;1.10;96.00
32640;DHT22;19049;52.524;11.468;2022-12-19T04:22:01;1.10;96.20
32640;DHT22;19049;52.524;11.468;2022-12-19T04:24:34;1.10;96.20
32640;DHT22;19049;52.524;11.468;2022-12-19T04:27:05;1.10;96.30
32640;DHT22;19049;52.524;11.468;2022-12-19T04:29:38;1.10;96.30
32640;DHT22;19049;52.524;11.468;2022-12-19T04:32:05;1.10;96.20
32640;DHT22;19049;52.524;11.468;2022-12-19T04:34:39;1.10;96.20
32640;DHT22;19049;52.524;11.468;2022-12-19T04:37:05;1.20;96.30
32640;DHT22;19049;52.524;11.468;2022-12-19T04:39:31;1.20;95.90
32640;DHT22;19049;52.524;11.468;2022-12-19T04:41:59;1.20;96.40
32640;DHT22;19049;52.524;11.468;2022-12-19T04:44:37;1.10;96.10
32640;DHT22;19049;52.524;11.468;2022-12-19T04:47:20;1.20;96.10
32640;DHT22;19049;52.524;11.468;2022-12-19T04:50:09;1.20;95.90
32640;DHT22;19049;52.524;11.468;2022-12-19T04:53:08;1.30;96.20
32640;DHT22;19049;52.524;11.468;2022-12-19T04:55:32;1.30;96.40
32640;DHT22;19049;52.524;11.468;2022-12-19T04:57:58;1.30;96.30
32640;DHT22;19049;52.524;11.468;2022-12-19T05:04:26;1.40;96.40
32640;DHT22;19049;52.524;11.468;2022-12-19T05:07:08;1.40;96.20
32640;DHT22;19049;52.524;11.468;2022-12-19T05:09:35;1.40;96.30
32640;DHT22;19049;52.524;11.468;2022-12-19T05:12:08;1.50;96.10
32640;DHT22;19049;52.524;11.468;2022-12-19T05:14:58;1.50;96.50
32640;DHT22;19049;52.524;11.468;2022-12-19T05:17:26;1.50;96.30
32640;DHT22;19049;52.524;11.468;2022-12-19T05:20:25;1.50;96.20
32640;DHT22;19049;52.524;11.468;2022-12-19T05:22:51;1.60;96.30
32640;DHT22;19049;52.524;11.468;2022-12-19T05:25:43;1.60;96.20
32640;DHT22;19049;52.524;11.468;2022-12-19T05:28:17;1.60;96.40
32640;DHT22;19049;52.524;11.468;2022-12-19T05:31:00;1.60;96.20
32640;DHT22;19049;52.524;11.468;2022-12-19T05:33:26;1.60;95.90
32640;DHT22;19049;52.524;11.468;2022-12-19T05:36:01;1.60;96.20
32640;DHT22;19049;52.524;11.468;2022-12-19T06:16:46;2.10;96.20
32640;DHT22;19049;52.524;11.468;2022-12-19T06:19:22;2.10;96.00
32640;DHT22;19049;52.524;11.468;2022-12-19T06:21:48;2.10;96.10
32640;DHT22;19049;52.524;11.468;2022-12-19T06:24:13;2.20;96.00
32640;DHT22;19049;52.524;11.468;2022-12-19T06:26:39;2.20;96.20
32640;DHT22;19049;52.524;11.468;2022-12-19T06:29:05;2.20;96.20
32640;DHT22;19049;52.524;11.468;2022-12-19T06:31:30;2.30;96.20
32640;DHT22;19049;52.524;11.468;2022-12-19T06:33:56;2.20;95.10
32640;DHT22;19049;52.524;11.468;2022-12-19T06:36:29;2.30;95.50
32640;DHT22;19049;52.524;11.468;2022-12-19T06:38:56;2.30;95.60
32640;DHT22;19049;52.524;11.468;2022-12-19T06:41:23;2.40;95.70
32640;DHT22;19049;52.524;11.468;2022-12-19T06:44:09;2.40;95.80
32640;DHT22;19049;52.524;11.468;2022-12-19T06:46:35;2.40;95.50
32640;DHT22;19049;52.524;11.468;2022-12-19T06:49:02;2.40;96.00
32640;DHT22;19049;52.524;11.468;2022-12-19T06:51:27;2.40;95.80
32640;DHT22;19049;52.524;11.468;2022-12-19T06:53:53;2.50;96.20
32640;DHT22;19049;52.524;11.468;2022-12-19T06:56:20;2.50;96.20
32640;DHT22;19049;52.524;11.468;2022-12-19T06:58:48;2.50;95.80
32640;DHT22;19049;52.524;11.468;2022-12-19T07:01:17;2.50;95.90
32640;DHT22;19049;52.524;11.468;2022-12-19T07:03:43;2.50;95.70
32640;DHT22;19049;52.524;11.468;2022-12-19T07:06:10;2.60;96.00
32640;DHT22;19049;52.524;11.468;2022-12-19T07:08:36;2.60;95.60
32640;DHT22;19049;52.524;11.468;2022-12-19T07:11:01;2.60;96.10
32640;DHT22;19049;52.524;11.468;2022-12-19T07:13:27;2.60;95.90
32640;DHT22;19049;52.524;11.468;2022-12-19T07:15:56;2.70;95.70
32640;DHT22;19049;52.524;11.468;2022-12-19T07:18:24;2.70;95.90
32640;DHT22;19049;52.524;11.468;2022-12-19T07:20:52;2.70;96.20
32640;DHT22;19049;52.524;11.468;2022-12-19T07:23:19;2.70;95.70
32640;DHT22;19049;52.524;11.468;2022-12-19T07:25:49;2.70;95.50
32640;DHT22;19049;52.524;11.468;2022-12-19T07:28:15;2.80;95.60
32640;DHT22;19049;52.524;11.468;2022-12-19T07:30:41;2.80;95.80
32640;DHT22;19049;52.524;11.468;2022-12-19T07:33:09;2.80;96.00
32640;DHT22;19049;52.524;11.468;2022-12-19T07:35:37;2.80;95.40
32640;DHT22;19049;52.524;11.468;2022-12-19T07:38:04;2.80;95.70
32640;DHT22;19049;52.524;11.468;2022-12-19T07:40:30;2.90;96.20
32640;DHT22;19049;52.524;11.468;2022-12-19T07:43:01;2.90;96.60
32640;DHT22;19049;52.524;11.468;2022-12-19T07:45:28;2.90;96.10
32640;DHT22;19049;52.524;11.468;2022-12-19T07:47:54;3.00;96.20
32640;DHT22;19049;52.524;11.468;2022-12-19T07:50:20;3.00;96.40
32640;DHT22;19049;52.524;11.468;2022-12-19T07:52:46;3.00;96.70
32640;DHT22;19049;52.524;11.468;2022-12-19T07:55:11;3.00;96.60
32640;DHT22;19049;52.524;11.468;2022-12-19T07:57:38;3.10;95.90
32640;DHT22;19049;52.524;11.468;2022-12-19T08:00:04;3.10;96.60
32640;DHT22;19049;52.524;11.468;2022-12-19T08:02:30;3.10;96.80
32640;DHT22;19049;52.524;11.468;2022-12-19T08:04:55;3.10;96.40
32640;DHT22;19049;52.524;11.468;2022-12-19T08:07:23;3.10;95.90
32640;DHT22;19049;52.524;11.468;2022-12-19T08:09:48;3.20;95.70
32640;DHT22;19049;52.524;11.468;2022-12-19T08:12:14;3.20;96.50
32640;DHT22;19049;52.524;11.468;2022-12-19T08:14:41;3.20;95.90
32640;DHT22;19049;52.524;11.468;2022-12-19T08:17:07;3.30;96.60
32640;DHT22;19049;52.524;11.468;2022-12-19T08:19:34;3.30;96.40
32640;DHT22;19049;52.524;11.468;2022-12-19T08:22:00;3.30;96.90
32640;DHT22;19049;52.524;11.468;2022-12-19T08:24:26;3.30;96.50
32640;DHT22;19049;52.524;11.468;2022-12-19T08:26:51;3.40;96.80
32640;DHT22;19049;52.524;11.468;2022-12-19T08:29:17;3.40;96.80
32640;DHT22;19049;52.524;11.468;2022-12-19T08:31:45;3.40;96.90
32640;DHT22;19049;52.524;11.468;2022-12-19T08:34:11;3.40;96.70
32640;DHT22;19049;52.524;11.468;2022-12-19T08:36:36;3.50;96.50
32640;DHT22;19049;52.524;11.468;2022-12-19T08:39:04;3.50;96.70
32640;DHT22;19049;52.524;11.468;2022-12-19T08:41:32;3.50;97.00
32640;DHT22;19049;52.524;11.468;2022-12-19T08:44:03;3.50;96.90
32640;DHT22;19049;52.524;11.468;2022-12-19T08:46:29;3.40;97.30
32640;DHT22;19049;52.524;11.468;2022-12-19T08:48:55;3.50;97.30
32640;DHT22;19049;52.524;11.468;2022-12-19T08:51:23;3.40;96.90
32640;DHT22;19049;52.524;11.468;2022-12-19T08:53:52;3.40;97.30
32640;DHT22;19049;52.524;11.468;2022-12-19T08:56:20;3.40;97.20
32640;DHT22;19049;52.524;11.468;2022-12-19T08:58:46;3.40;97.30
32640;DHT22;19049;52.524;11.468;2022-12-19T09:01:17;3.40;97.30
32640;DHT22;19049;52.524;11.468;2022-12-19T09:03:46;3.40;97.70
32640;DHT22;19049;52.524;11.468;2022-12-19T09:06:29;3.40;97.70
32640;DHT22;19049;52.524;11.468;2022-12-19T09:09:03;3.40;97.70
32640;DHT22;19049;52.524;11.468;2022-12-19T09:11:29;3.40;97.70
32640;DHT22;19049;52.524;11.468;2022-12-19T09:14:00;3.50;98.00
32640;DHT22;19049;52.524;11.468;2022-12-19T09:16:43;3.50;98.10
32640;DHT22;19049;52.524;11.468;2022-12-19T09:19:09;3.50;98.10
32640;DHT22;19049;52.524;11.468;2022-12-19T09:21:39;3.50;98.00
32640;DHT22;19049;52.524;11.468;2022-12-19T09:24:16;3.60;98.10
32640;DHT22;19049;52.524;11.468;2022-12-19T09:26:41;3.60;98.20
32640;DHT22;19049;52.524;11.468;2022-12-19T09:29:09;3.60;98.10
32640;DHT22;19049;52.524;11.468;2022-12-19T09:32:03;3.60;98.30
32640;DHT22;19049;52.524;11.468;2022-12-19T09:35:02;3.70;98.20
32640;DHT22;19049;52.524;11.468;2022-12-19T09:47:33;3.60;98.30
32640;DHT22;19049;52.524;11.468;2022-12-19T09:50:43;3.60;98.30
32640;DHT22;19049;52.524;11.468;2022-12-19T10:07:12;3.70;98.60
32640;DHT22;19049;52.524;11.468;2022-12-19T10:10:03;3.70;98.60
32640;DHT22;19049;52.524;11.468;2022-12-19T11:12:20;4.50;99.10
32640;DHT22;19049;52.524;11.468;2022-12-19T11:18:14;4.40;98.70
32640;DHT22;19049;52.524;11.468;2022-12-19T11:24:48;4.40;98.90
32640;DHT22;19049;52.524;11.468;2022-12-19T11:31:22;4.40;99.10
32640;DHT22;19049;52.524;11.468;2022-12-19T11:37:21;4.30;99.10
32640;DHT22;19049;52.524;11.468;2022-12-19T11:44:26;4.30;99.20
32640;DHT22;19049;52.524;11.468;2022-12-19T12:41:48;4.50;99.80
32640;DHT22;19049;52.524;11.468;2022-12-19T12:48:09;4.60;99.90
32640;DHT22;19049;52.524;11.468;2022-12-19T12:51:07;4.60;99.90
32640;DHT22;19049;52.524;11.468;2022-12-19T12:53:50;4.60;99.90
32640;DHT22;19049;52.524;11.468;2022-12-19T12:56:37;4.70;99.90
32640;DHT22;19049;52.524;11.468;2022-12-19T12:59:27;4.70;99.90
32640;DHT22;19049;52.524;11.468;2022-12-19T13:02:09;4.80;99.90
32640;DHT22;19049;52.524;11.468;2022-12-19T13:04:57;4.80;99.90
32640;DHT22;19049;52.524;11.468;2022-12-19T13:07:44;4.90;99.90
32640;DHT22;19049;52.524;11.468;2022-12-19T13:12:57;4.90;99.90
32640;DHT22;19049;52.524;11.468;2022-12-19T13:18:10;5.00;99.90
32640;DHT22;19049;52.524;11.468;2022-12-19T13:20:45;5.00;99.90
32640;DHT22;19049;52.524;11.468;2022-12-19T13:28:39;5.10;99.90
32640;DHT22;19049;52.524;11.468;2022-12-19T13:31:27;5.10;99.90
32640;DHT22;19049;52.524;11.468;2022-12-19T13:51:53;5.20;99.90
32640;DHT22;19049;52.524;11.468;2022-12-19T13:55:01;5.30;99.90
32640;DHT22;19049;52.524;11.468;2022-12-19T14:04:38;5.30;99.90
32640;DHT22;19049;52.524;11.468;2022-12-19T14:07:39;5.30;99.90
32640;DHT22;19049;52.524;11.468;2022-12-19T14:13:55;5.40;99.90
32640;DHT22;19049;52.524;11.468;2022-12-19T14:20:21;5.40;99.90
32640;DHT22;19049;52.524;11.468;2022-12-19T14:23:30;5.40;99.90
32640;DHT22;19049;52.524;11.468;2022-12-19T14:26:32;5.40;99.90
32640;DHT22;19049;52.524;11.468;2022-12-19T14:32:19;5.50;99.90
32640;DHT22;19049;52.524;11.468;2022-12-19T14:34:51;5.50;99.90
32640;DHT22;19049;52.524;11.468;2022-12-19T14:37:45;5.60;99.90
32640;DHT22;19049;52.524;11.468;2022-12-19T14:44:22;5.60;99.90
32640;DHT22;19049;52.524;11.468;2022-12-19T14:51:41;5.60;99.90
32640;DHT22;19049;52.524;11.468;2022-12-19T14:54:18;5.70;99.90
32640;DHT22;19049;52.524;11.468;2022-12-19T14:57:15;5.70;99.90
32640;DHT22;19049;52.524;11.468;2022-12-19T15:13:36;5.80;99.90
32640;DHT22;19049;52.524;11.468;2022-12-19T15:16:27;5.80;99.90
32640;DHT22;19049;52.524;11.468;2022-12-19T15:19:12;5.80;99.90
32640;DHT22;19049;52.524;11.468;2022-12-19T15:21:50;5.80;99.90
32640;DHT22;19049;52.524;11.468;2022-12-19T15:55:05;6.00;99.90
32640;DHT22;19049;52.524;11.468;2022-12-19T16:04:30;6.00;99.90
32640;DHT22;19049;52.524;11.468;2022-12-19T16:10:50;6.10;99.90
32640;DHT22;19049;52.524;11.468;2022-12-19T16:13:55;6.10;99.90
32640;DHT22;19049;52.524;11.468;2022-12-19T16:16:35;6.10;99.90
32640;DHT22;19049;52.524;11.468;2022-12-19T16:19:31;6.20;99.90
32640;DHT22;19049;52.524;11.468;2022-12-19T16:22:19;6.20;99.90
32640;DHT22;19049;52.524;11.468;2022-12-19T16:24:55;6.20;99.90
32640;DHT22;19049;52.524;11.468;2022-12-19T16:34:30;6.30;99.90
32640;DHT22;19049;52.524;11.468;2022-12-19T17:14:44;6.50;99.90
32640;DHT22;19049;52.524;11.468;2022-12-19T17:23:50;6.60;99.90
32640;DHT22;19049;52.524;11.468;2022-12-19T17:26:23;6.60;99.90
32640;DHT22;19049;52.524;11.468;2022-12-19T17:28:51;6.70;99.90
32640;DHT22;19049;52.524;11.468;2022-12-19T17:31:51;6.60;99.90
32640;DHT22;19049;52.524;11.468;2022-12-19T17:34:40;6.60;99.90
32640;DHT22;19049;52.524;11.468;2022-12-19T17:37:35;6.60;99.90
32640;DHT22;19049;52.524;11.468;2022-12-19T17:40:04;6.60;99.90
32640;DHT22;19049;52.524;11.468;2022-12-19T17:42:33;6.60;99.90
32640;DHT22;19049;52.524;11.468;2022-12-19T17:45:10;6.60;99.90
32640;DHT22;19049;52.524;11.468;2022-12-19T17:48:20;6.60;99.90
32640;DHT22;19049;52.524;11.468;2022-12-19T17:51:08;6.60;99.90
32640;DHT22;19049;52.524;11.468;2022-12-19T17:53:55;6.60;99.90
32640;DHT22;19049;52.524;11.468;2022-12-19T17:56:28;6.50;99.90
32640;DHT22;19049;52.524;11.468;2022-12-19T17:59:03;6.60;99.90
32640;DHT22;19049;52.524;11.468;2022-12-19T18:01:31;6.50;99.90
32640;DHT22;19049;52.524;11.468;2022-12-19T18:04:21;6.50;99.90
32640;DHT22;19049;52.524;11.468;2022-12-19T18:06:47;6.60;99.90
32640;DHT22;19049;52.524;11.468;2022-12-19T18:09:24;6.50;99.90
32640;DHT22;19049;52.524;11.468;2022-12-19T18:11:52;6.50;99.90
32640;DHT22;19049;52.524;11.468;2022-12-19T18:14:47;6.50;99.90
32640;DHT22;19049;52.524;11.468;2022-12-19T18:17:22;6.60;99.90
32640;DHT22;19049;52.524;11.468;2022-12-19T18:20:02;6.60;99.90
32640;DHT22;19049;52.524;11.468;2022-12-19T18:22:38;6.50;99.90
32640;DHT22;19049;52.524;11.468;2022-12-19T18:25:14;6.60;99.90
32640;DHT22;19049;52.524;11.468;2022-12-19T18:27:44;6.60;99.90
32640;DHT22;19049;52.524;11.468;2022-12-19T18:30:14;6.60;99.90
32640;DHT22;19049;52.524;11.468;2022-12-19T18:33:19;6.60;99.90
32640;DHT22;19049;52.524;11.468;2022-12-19T18:36:03;6.50;99.90
32640;DHT22;19049;52.524;11.468;2022-12-19T18:38:39;6.60;99.90
32640;DHT22;19049;52.524;11.468;2022-12-19T18:41:10;6.60;99.90
32640;DHT22;19049;52.524;11.468;2022-12-19T18:43:56;6.50;99.90
32640;DHT22;19049;52.524;11.468;2022-12-19T18:46:26;6.60;99.90
32640;DHT22;19049;52.524;11.468;2022-12-19T18:49:16;6.60;99.90
32640;DHT22;19049;52.524;11.468;2022-12-19T18:51:49;6.60;99.90
32640;DHT22;19049;52.524;11.468;2022-12-19T18:54:18;6.60;99.90
32640;DHT22;19049;52.524;11.468;2022-12-19T18:56:44;6.70;99.90
32640;DHT22;19049;52.524;11.468;2022-12-19T18:59:15;6.60;99.90
32640;DHT22;19049;52.524;11.468;2022-12-19T19:01:43;6.70;99.90
32640;DHT22;19049;52.524;11.468;2022-12-19T19:04:10;6.70;99.90
32640;DHT22;19049;52.524;11.468;2022-12-19T19:06:37;6.70;99.90
32640;DHT22;19049;52.524;11.468;2022-12-19T19:09:09;6.60;99.90
32640;DHT22;19049;52.524;11.468;2022-12-19T19:11:37;6.60;99.90
32640;DHT22;19049;52.524;11.468;2022-12-19T19:14:06;6.60;99.90
32640;DHT22;19049;52.524;11.468;2022-12-19T19:16:31;6.60;99.90
32640;DHT22;19049;52.524;11.468;2022-12-19T19:18:59;6.60;99.90
32640;DHT22;19049;52.524;11.468;2022-12-19T19:21:33;6.60;99.90
32640;DHT22;19049;52.524;11.468;2022-12-19T19:24:09;6.60;99.90
32640;DHT22;19049;52.524;11.468;2022-12-19T19:26:36;6.60;99.90
32640;DHT22;19049;52.524;11.468;2022-12-19T19:29:02;6.60;99.90
32640;DHT22;19049;52.524;11.468;2022-12-19T19:31:30;6.60;99.90
32640;DHT22;19049;52.524;11.468;2022-12-19T19:34:29;6.60;99.90
32640;DHT22;19049;52.524;11.468;2022-12-19T19:37:16;6.50;99.90
32640;DHT22;19049;52.524;11.468;2022-12-19T19:39:42;6.50;99.90
32640;DHT22;19049;52.524;11.468;2022-12-19T19:42:08;6.50;99.90
32640;DHT22;19049;52.524;11.468;2022-12-19T19:44:34;6.50;99.90
32640;DHT22;19049;52.524;11.468;2022-12-19T19:46:59;6.60;99.90
32640;DHT22;19049;52.524;11.468;2022-12-19T19:49:25;6.60;99.90
32640;DHT22;19049;52.524;11.468;2022-12-19T19:51:51;6.60;99.90
32640;DHT22;19049;52.524;11.468;2022-12-19T19:54:16;6.60;99.90
32640;DHT22;19049;52.524;11.468;2022-12-19T19:56:42;6.60;99.90
32640;DHT22;19049;52.524;11.468;2022-12-19T19:59:10;6.60;99.90
32640;DHT22;19049;52.524;11.468;2022-12-19T20:01:39;6.60;99.90
32640;DHT22;19049;52.524;11.468;2022-12-19T20:04:04;6.70;99.90
32640;DHT22;19049;52.524;11.468;2022-12-19T20:06:30;6.70;99.90
32640;DHT22;19049;52.524;11.468;2022-12-19T20:08:56;6.70;99.90
32640;DHT22;19049;52.524;11.468;2022-12-19T20:11:25;6.70;99.90
32640;DHT22;19049;52.524;11.468;2022-12-19T20:13:58;6.70;99.90
32640;DHT22;19049;52.524;11.468;2022-12-19T20:16:24;6.80;99.90
32640;DHT22;19049;52.524;11.468;2022-12-19T20:18:55;6.80;99.90
32640;DHT22;19049;52.524;11.468;2022-12-19T20:21:28;6.80;99.90
32640;DHT22;19049;52.524;11.468;2022-12-19T20:24:02;6.80;99.90
32640;DHT22;19049;52.524;11.468;2022-12-19T20:26:28;6.80;99.90
32640;DHT22;19049;52.524;11.468;2022-12-19T20:28:59;6.80;99.90
32640;DHT22;19049;52.524;11.468;2022-12-19T20:31:27;6.90;99.90
32640;DHT22;19049;52.524;11.468;2022-12-19T20:34:05;6.90;99.90
32640;DHT22;19049;52.524;11.468;2022-12-19T20:36:32;6.90;99.90
32640;DHT22;19049;52.524;11.468;2022-12-19T20:38:58;6.90;99.90
32640;DHT22;19049;52.524;11.468;2022-12-19T20:41:31;6.90;99.90
32640;DHT22;19049;52.524;11.468;2022-12-19T20:44:00;7.00;99.90
32640;DHT22;19049;52.524;11.468;2022-12-19T20:46:39;7.00;99.90
32640;DHT22;19049;52.524;11.468;2022-12-19T20:49:07;7.00;99.90
32640;DHT22;19049;52.524;11.468;2022-12-19T20:51:35;7.10;99.90
32640;DHT22;19049;52.524;11.468;2022-12-19T20:54:15;7.10;99.90
32640;DHT22;19049;52.524;11.468;2022-12-19T20:56:50;7.10;99.90
32640;DHT22;19049;52.524;11.468;2022-12-19T20:59:22;7.10;99.90
32640;DHT22;19049;52.524;11.468;2022-12-19T21:01:55;7.10;99.90
32640;DHT22;19049;52.524;11.468;2022-12-19T21:04:24;7.10;99.90
32640;DHT22;19049;52.524;11.468;2022-12-19T21:06:59;7.20;99.90
32640;DHT22;19049;52.524;11.468;2022-12-19T21:09:24;7.20;99.90
32640;DHT22;19049;52.524;11.468;2022-12-19T21:11:50;7.20;99.90
32640;DHT22;19049;52.524;11.468;2022-12-19T21:14:18;7.20;99.90
32640;DHT22;19049;52.524;11.468;2022-12-19T21:16:44;7.20;99.90
32640;DHT22;19049;52.524;11.468;2022-12-19T21:19:16;7.20;99.90
32640;DHT22;19049;52.524;11.468;2022-12-19T21:21:42;7.20;99.90
32640;DHT22;19049;52.524;11.468;2022-12-19T21:24:15;7.20;99.90
32640;DHT22;19049;52.524;11.468;2022-12-19T21:26:43;7.20;99.90
32640;DHT22;19049;52.524;11.468;2022-12-19T21:29:16;7.20;99.90
32640;DHT22;19049;52.524;11.468;2022-12-19T21:31:45;7.20;99.90
32640;DHT22;19049;52.524;11.468;2022-12-19T21:34:31;7.20;99.90
32640;DHT22;19049;52.524;11.468;2022-12-19T21:37:03;7.20;99.90
32640;DHT22;19049;52.524;11.468;2022-12-19T21:39:34;7.30;99.90
32640;DHT22;19049;52.524;11.468;2022-12-19T21:42:09;7.20;99.90
32640;DHT22;19049;52.524;11.468;2022-12-19T21:44:41;7.30;99.90
32640;DHT22;19049;52.524;11.468;2022-12-19T21:49:47;7.40;99.90
32640;DHT22;19049;52.524;11.468;2022-12-19T21:52:20;7.40;99.90
32640;DHT22;19049;52.524;11.468;2022-12-19T21:54:46;7.40;99.90
32640;DHT22;19049;52.524;11.468;2022-12-19T21:57:20;7.40;99.90
32640;DHT22;19049;52.524;11.468;2022-12-19T21:59:48;7.50;99.90
32640;DHT22;19049;52.524;11.468;2022-12-19T22:02:38;7.50;99.90
32640;DHT22;19049;52.524;11.468;2022-12-19T22:05:06;7.50;99.90
32640;DHT22;19049;52.524;11.468;2022-12-19T22:08:08;7.50;99.90
32640;DHT22;19049;52.524;11.468;2022-12-19T22:10:51;7.50;99.90
32640;DHT22;19049;52.524;11.468;2022-12-19T22:13:21;7.60;99.90
32640;DHT22;19049;52.524;11.468;2022-12-19T22:16:00;7.60;99.90
32640;DHT22;19049;52.524;11.468;2022-12-19T22:18:28;7.60;99.90
32640;DHT22;19049;52.524;11.468;2022-12-19T22:20:57;7.60;99.90
32640;DHT22;19049;52.524;11.468;2022-12-19T22:23:26;7.60;99.90
32640;DHT22;19049;52.524;11.468;2022-12-19T22:26:15;7.60;99.90
32640;DHT22;19049;52.524;11.468;2022-12-19T22:28:46;7.60;99.90
32640;DHT22;19049;52.524;11.468;2022-12-19T22:31:26;7.70;99.90
32640;DHT22;19049;52.524;11.468;2022-12-19T22:33:58;7.70;99.90
32640;DHT22;19049;52.524;11.468;2022-12-19T22:36:28;7.70;99.90
32640;DHT22;19049;52.524;11.468;2022-12-19T22:38:58;7.70;99.90
32640;DHT22;19049;52.524;11.468;2022-12-19T22:41:24;7.70;99.90
32640;DHT22;19049;52.524;11.468;2022-12-19T22:43:51;7.70;99.90
32640;DHT22;19049;52.524;11.468;2022-12-19T22:46:29;7.70;99.90
32640;DHT22;19049;52.524;11.468;2022-12-19T22:49:06;7.70;99.90
32640;DHT22;19049;52.524;11.468;2022-12-19T22:51:35;7.70;99.90
32640;DHT22;19049;52.524;11.468;2022-12-19T22:54:02;7.70;99.90